Paradise Valley, Nevada Weather observations

Data are for 10 minute period ending at time listed.
 Day   Time   Solar   Ave.   Ave.  Ave.  Vector  Max.   Baro.   Total    
  of    of     Rad.   Air    Rel.  Wind   Wind   Wind  Press.  Precip.   
Year   Day            Temp.  Hum.  Speed  Dir.   Gust                    
2016   (PST)  Kw/m2    F      %     mph   deg.    mph    mb.     in.     
-------------------------------------------------------------------------
  39   19:50   0.00   33.9    81    3.5   194     4.5   880.8    0.00 
  39   20:00   0.00   32.9    81    4.3   215     5.0   880.9    0.00 
  39   20:10   0.00   31.8    84    3.8   232     4.7   881.0    0.00 
  39   20:20   0.00   31.0    87    4.5   260     5.0   881.0    0.00 
  39   20:30   0.00   30.8    88    3.6   276     4.5   881.0    0.00 
  39   20:40   0.00   30.9    87    3.1   296     3.7   881.0    0.00 
  39   20:50   0.00   30.7    87    2.2   304     3.9   881.0    0.00 
  39   21:00   0.00   30.5    87    0.9   315     2.6   880.9    0.00 
  39   21:10   0.00   30.0    88    0.4   322     1.9   880.9    0.00 
  39   21:20   0.00   31.7    88    0.8   329     2.7   880.9    0.00 
  39   21:30   0.00   31.4    86    0.2   319     1.2   880.8    0.00 
  39   21:40   0.00   32.0    86    0.5   319     1.5   880.8    0.00 
  39   21:50   0.00   31.4    86    0.3   247     1.5   880.8    0.00 
  39   22:00   0.00   32.0    87    0.3   242     1.1   880.8    0.00 
  39   22:10   0.00   31.5    86    0.2   240     1.8   880.8    0.00 
  39   22:20   0.00   30.8    87    0.8   231     3.0   880.8    0.00 
  39   22:30   0.00   29.6    87    5.0   216     6.1   880.9    0.00 
  39   22:40   0.00   28.6    90    5.7   233     6.4   880.9    0.00 
  39   22:50   0.00   29.4    91    4.6   240     6.1   880.9    0.00 
  39   23:00   0.00   30.9    88    3.1   250     3.7   880.9    0.00 
  39   23:10   0.00   30.2    87    3.4   254     4.0   880.8    0.00 
  39   23:20   0.00   28.2    89    4.7   248     5.0   880.7    0.00 
  39   23:30   0.00   28.2    91    4.0   249     4.6   880.6    0.00 
  39   23:40   0.00   27.8    89    4.1   227     5.3   880.7    0.00 
  39   23:50   0.00   26.9    91    3.3   249     4.4   880.6    0.00 
  40    0:00   0.00   27.1    92    3.5   248     4.4   880.5    0.00 
  40    0:10   0.00   28.0    91    3.5   244     4.2   880.5    0.00 
  40    0:20   0.00   28.2    90    2.9   246     3.9   880.4    0.00 
  40    0:30   0.00   26.6    89    1.9   236     3.6   880.4    0.00 
  40    0:40   0.00   26.3    91    3.4   244     4.5   880.4    0.00 
  40    0:50   0.00   26.6    91    2.8   246     4.0   880.4    0.00 
  40    1:00   0.00   27.2    92    0.8   241     2.4   880.4    0.00 
  40    1:10   0.00   25.7    90    0.5   271     2.0   880.3    0.00 
  40    1:20   0.00   25.3    92    2.2   325     3.5   880.3    0.00 
  40    1:30   0.00   25.6    94    2.7   323     3.3   880.3    0.00 
  40    1:40   0.00   25.8    94    3.1   314     4.2   880.2    0.00 
  40    1:50   0.00   24.9    94    3.4   308     4.1   880.1    0.00 
  40    2:00   0.00   25.3    94    3.9   310     5.4   880.1    0.00 
  40    2:10   0.00   25.1    94    4.3   291     5.4   880.0    0.00 
  40    2:20   0.00   25.7    95    4.0   284     4.5   880.0    0.00 
  40    2:30   0.00   26.7    94    2.2   276     3.1   879.9    0.00 
  40    2:40   0.00   27.5    94    2.0   281     2.7   879.8    0.00 
  40    2:50   0.00   28.2    93    1.6   351     3.7   879.8    0.00 
  40    3:00   0.00   27.1    92    3.3    25     3.9   879.8    0.00 
  40    3:10   0.00   25.4    93    2.4    31     4.3   879.7    0.00 
  40    3:20   0.00   24.5    94    0.1   322     1.6   879.7    0.00 
  40    3:30   0.00   24.4    95    2.8   272     3.7   879.6    0.00 
  40    3:40   0.00   25.2    96    1.6   269     2.9   879.6    0.00 
  40    3:50   0.00   25.3    94    3.4   256     4.2   879.5    0.00 
  40    4:00   0.00   26.1    95    0.5   245     2.4   879.5    0.00 
  40    4:10   0.00   26.4    92    1.7   241     4.6   879.4    0.00 
  40    4:20   0.00   26.8    94    2.3   234     4.5   879.4    0.00 
  40    4:30   0.00   27.9    90    1.7   241     4.0   879.4    0.00 
  40    4:40   0.00   27.2    90    2.5   227     4.1   879.4    0.00 
  40    4:50   0.00   24.9    88    3.4   231     4.8   879.4    0.00 
  40    5:00   0.00   25.6    93    1.9   241     3.1   879.3    0.00 
  40    5:10   0.00   26.0    90    2.7   245     3.3   879.3    0.00 
  40    5:20   0.00   26.6    90    2.2   245     3.0   879.2    0.00 
  40    5:30   0.00   25.4    91    3.1   243     5.0   879.1    0.00 
  40    5:40   0.00   24.8    91    4.0   245     5.6   879.1    0.00 
  40    5:50   0.00   26.3    90    1.9   205     3.3   879.1    0.00 
  40    6:00   0.00   23.5    89    2.1   161     3.2   879.1    0.00 
  40    6:10   0.00   23.6    92    0.8   162     1.7   879.1    0.00 
  40    6:20   0.00   24.1    92    0.1   162     0.8   879.0    0.00 
  40    6:30   0.00   23.7    92    1.6   251     3.2   879.0    0.00 
  40    6:40   0.00   22.8    93    1.7   275     3.0   879.0    0.00 
  40    6:50   0.00   22.8    94    1.8   321     2.9   879.1    0.00 
  40    7:00   0.01   22.6    94    1.7     3     3.4   879.2    0.00 
  40    7:10   0.03   21.3    93    3.2   352     4.3   879.2    0.00 
  40    7:20   0.07   21.0    94    3.6   329     4.6   879.2    0.00 
  40    7:30   0.10   23.0    95    2.1   331     3.6   879.2    0.00 
  40    7:40   0.13   24.4    92    4.0   347     5.5   879.1    0.00 
  40    7:50   0.16   25.3    92    4.4   358     5.6   879.2    0.00 
  40    8:00   0.19   26.6    92    2.2     3     3.3   879.3    0.00 
  40    8:10   0.22   28.6    90    1.2   359     2.3   879.4    0.00 
  40    8:20   0.25   30.1    87    0.5   355     1.2   879.4    0.00 
  40    8:30   0.27   31.2    85    0.7     9     1.5   879.6    0.00 
  40    8:40   0.30   31.5    84    0.4    76     2.3   879.6    0.00 
  40    8:50   0.32   33.4    81    0.1    81     1.6   879.7    0.00 
  40    9:00   0.35   34.3    78    0.6   128     2.1   879.7    0.00 
  40    9:10   0.37   36.5    74    0.1   156     1.0   879.7    0.00 
  40    9:20   0.40   34.7    76    1.7   155     4.2   879.8    0.00 
  40    9:30   0.43   34.1    80    2.2   170     4.6   879.8    0.00 
  40    9:40   0.45   37.2    73    2.0   179     3.1   879.8    0.00 
  40    9:50   0.48   37.7    71    2.3   175     3.3   879.8    0.00 
  40   10:00   0.50   37.9    72    1.6   169     3.2   879.8    0.00 
  40   10:10   0.52   39.4    66    0.7   131     2.3   879.6    0.00 
  40   10:20   0.55   38.3    67    2.0    88     3.4   879.5    0.00 
  40   10:30   0.56   37.0    72    1.9    82     3.4   879.4    0.00 
  40   10:40   0.58   36.7    74    1.7    68     3.5   879.3    0.00 
  40   10:50   0.59   38.2    72    1.4     9     2.7   879.2    0.00 
  40   11:00   0.61   37.5    73    2.1    43     3.4   879.0    0.00 
  40   11:10   0.62   37.6    73    2.0    96     3.7   879.0    0.00 
  40   11:20   0.63   40.2    69    1.0   136     2.9   878.9    0.00 
  40   11:30   0.64   40.0    67    2.5   140     3.7   878.8    0.00 
  40   11:40   0.64   39.7    70    1.8   142     3.4   878.6    0.00 
  40   11:50   0.65   42.7    63    0.3   193     1.8   878.4    0.00 
  40   12:00   0.65   42.1    62    1.8    70     3.4   878.2    0.00 
  40   12:10   0.65   40.9    65    1.9    82     3.6   878.0    0.00 
  40   12:20   0.65   42.8    62    1.2    68     3.1   877.8    0.00 
  40   12:30   0.65   42.2    64    2.3    92     4.1   877.7    0.00 
  40   12:40   0.64   42.2    67    1.7   101     2.9   877.6    0.00 
  40   12:50   0.64   42.9    66    1.4    75     2.4   877.4    0.00 
  40   13:00   0.63   44.6    62    0.8   122     2.5   877.2    0.00 
  40   13:10   0.62   43.9    62    1.4   139     2.3   877.0    0.00 
  40   13:20   0.61   45.6    56    2.3   168     3.5   876.8    0.00 
  40   13:30   0.59   45.7    57    2.3   140     3.9   876.7    0.00 
  40   13:40   0.58   45.0    59    1.8   122     3.1   876.6    0.00 
  40   13:50   0.56   45.6    58    1.3   102     2.8   876.5    0.00 
  40   14:00   0.54   46.9    56    1.7   164     3.2   876.3    0.00 
  40   14:10   0.52   46.2    58    2.0   135     3.1   876.3    0.00 
  40   14:20   0.50   45.7    61    2.3   132     3.3   876.2    0.00 
  40   14:30   0.48   45.9    60    2.2   131     3.0   876.1    0.00 
  40   14:40   0.46   46.5    59    2.1   120     3.4   876.0    0.00 
  40   14:50   0.43   47.1    58    1.9    81     3.0   875.9    0.00 
  40   15:00   0.40   46.4    63    2.4    70     3.1   875.8    0.00 
  40   15:10   0.38   46.1    62    2.2    58     3.0   875.7    0.00 
  40   15:20   0.33   45.4    65    1.7    24     2.7   875.7    0.00 
  40   15:30   0.32   46.7    60    0.9    40     2.0   875.6    0.00 
  40   15:40   0.27   46.8    57    1.6    72     2.3   875.6    0.00 
  40   15:50   0.21   45.8    58    2.4    73     2.9   875.6    0.00 
  40   16:00   0.23   45.7    59    1.8    79     2.6   875.5    0.00 
  40   16:10   0.19   45.8    62    1.4    87     2.0   875.4    0.00 
  40   16:20   0.16   45.8    62    0.6    88     1.5   875.3    0.00 
  40   16:30   0.12   46.1    64    0.9    88     1.8   875.1    0.00 
  40   16:40   0.12   44.8    64    0.5    88     1.2   875.1    0.00 
  40   16:50   0.08   44.6    64    0.4    87     1.8   875.2    0.00 
  40   17:00   0.04   44.2    63    0.0     0     0.0   875.3    0.00 
  40   17:10   0.01   42.5    66    0.0     0     0.0   875.4    0.00 
  40   17:20   0.01   39.6    72    2.0   229     5.6   875.5    0.00 
  40   17:30   0.00   36.6    81    5.2   237     6.4   875.6    0.00 
  40   17:40   0.00   34.3    84    5.2   238     6.6   875.6    0.00 
  40   17:50   0.00   33.2    88    5.8   239     6.5   875.6    0.00 
  40   18:00   0.00   33.5    87    6.3   235     7.3   875.7    0.00 
  40   18:10   0.00   33.6    86    6.1   234     7.0   875.7    0.00 
  40   18:20   0.00   33.6    85    6.6   232     7.4   875.8    0.00 
  40   18:30   0.00   33.4    85    6.4   234     7.2   875.7    0.00 
  40   18:40   0.00   33.3    85    6.0   234     6.9   875.7    0.00 
  40   18:50   0.00   32.9    85    4.8   227     6.4   875.7    0.00 
  40   19:00   0.00   32.2    87    5.3   244     6.1   875.7    0.00 
  40   19:10   0.00   32.6    86    5.8   236     6.5   875.7    0.00 
  40   19:20   0.00   32.2    86    4.6   238     5.4   875.6    0.00 
  40   19:30   0.00   32.2    86    5.2   231     5.7   875.6    0.00 
  40   19:40   0.00   32.0    86    5.5   229     6.4   875.6    0.00 

Return to Paradise Valley graphs page.


Western Regional Climate Center,wrcc@dri.edu